sensor_id;sensor_type;location;lat;lon;timestamp;temperature;humidity
17697;DHT22;8967;47.984;7.842;2023-10-13T00:00:40;21.20;68.20
17697;DHT22;8967;47.984;7.842;2023-10-13T00:03:09;21.20;68.20
17697;DHT22;8967;47.984;7.842;2023-10-13T00:05:43;21.30;68.60
17697;DHT22;8967;47.984;7.842;2023-10-13T00:08:11;21.20;68.70
17697;DHT22;8967;47.984;7.842;2023-10-13T00:10:42;21.20;69.10
17697;DHT22;8967;47.984;7.842;2023-10-13T00:13:10;21.20;70.00
17697;DHT22;8967;47.984;7.842;2023-10-13T00:15:42;21.20;69.50
17697;DHT22;8967;47.984;7.842;2023-10-13T00:18:21;21.20;69.70
17697;DHT22;8967;47.984;7.842;2023-10-13T00:20:48;21.20;69.90
17697;DHT22;8967;47.984;7.842;2023-10-13T00:23:16;21.20;70.20
17697;DHT22;8967;47.984;7.842;2023-10-13T00:25:47;21.20;70.50
17697;DHT22;8967;47.984;7.842;2023-10-13T00:28:25;21.10;70.70
17697;DHT22;8967;47.984;7.842;2023-10-13T00:30:52;21.10;70.90
17697;DHT22;8967;47.984;7.842;2023-10-13T00:33:31;21.10;70.90
17697;DHT22;8967;47.984;7.842;2023-10-13T00:35:58;21.10;71.10
17697;DHT22;8967;47.984;7.842;2023-10-13T00:38:26;21.00;71.30
17697;DHT22;8967;47.984;7.842;2023-10-13T00:40:53;21.00;71.60
17697;DHT22;8967;47.984;7.842;2023-10-13T00:43:23;21.10;72.00
17697;DHT22;8967;47.984;7.842;2023-10-13T00:46:01;21.10;72.20
17697;DHT22;8967;47.984;7.842;2023-10-13T00:48:40;21.00;72.30
17697;DHT22;8967;47.984;7.842;2023-10-13T00:51:10;21.00;72.00
17697;DHT22;8967;47.984;7.842;2023-10-13T00:53:45;20.90;71.90
17697;DHT22;8967;47.984;7.842;2023-10-13T00:56:14;20.90;71.70
17697;DHT22;8967;47.984;7.842;2023-10-13T00:58:49;20.90;71.60
17697;DHT22;8967;47.984;7.842;2023-10-13T01:01:17;20.90;71.60
17697;DHT22;8967;47.984;7.842;2023-10-13T01:03:47;20.80;71.60
17697;DHT22;8967;47.984;7.842;2023-10-13T01:06:15;20.80;71.60
17697;DHT22;8967;47.984;7.842;2023-10-13T01:08:46;20.80;71.70
17697;DHT22;8967;47.984;7.842;2023-10-13T01:11:19;20.80;71.70
17697;DHT22;8967;47.984;7.842;2023-10-13T01:13:53;20.70;71.50
17697;DHT22;8967;47.984;7.842;2023-10-13T01:16:19;20.70;71.90
17697;DHT22;8967;47.984;7.842;2023-10-13T01:18:49;20.70;71.90
17697;DHT22;8967;47.984;7.842;2023-10-13T01:21:16;20.70;72.00
17697;DHT22;8967;47.984;7.842;2023-10-13T01:23:47;20.70;72.20
17697;DHT22;8967;47.984;7.842;2023-10-13T01:26:14;20.60;72.40
17697;DHT22;8967;47.984;7.842;2023-10-13T01:28:47;20.60;72.70
17697;DHT22;8967;47.984;7.842;2023-10-13T01:31:14;20.60;72.50
17697;DHT22;8967;47.984;7.842;2023-10-13T01:33:51;20.60;72.50
17697;DHT22;8967;47.984;7.842;2023-10-13T01:36:22;20.50;72.50
17697;DHT22;8967;47.984;7.842;2023-10-13T01:38:50;20.50;72.50
17697;DHT22;8967;47.984;7.842;2023-10-13T01:41:18;20.50;72.60
17697;DHT22;8967;47.984;7.842;2023-10-13T01:43:46;20.50;72.60
17697;DHT22;8967;47.984;7.842;2023-10-13T01:46:15;20.50;72.80
17697;DHT22;8967;47.984;7.842;2023-10-13T01:48:41;20.40;72.70
17697;DHT22;8967;47.984;7.842;2023-10-13T01:51:10;20.40;72.40
17697;DHT22;8967;47.984;7.842;2023-10-13T01:53:37;20.40;72.50
17697;DHT22;8967;47.984;7.842;2023-10-13T01:56:08;20.30;72.50
17697;DHT22;8967;47.984;7.842;2023-10-13T01:58:40;20.30;72.60
17697;DHT22;8967;47.984;7.842;2023-10-13T02:01:10;20.20;72.70
17697;DHT22;8967;47.984;7.842;2023-10-13T02:03:37;20.20;72.80
17697;DHT22;8967;47.984;7.842;2023-10-13T02:06:08;20.10;72.50
17697;DHT22;8967;47.984;7.842;2023-10-13T02:08:36;20.10;72.80
17697;DHT22;8967;47.984;7.842;2023-10-13T02:11:11;20.00;72.50
17697;DHT22;8967;47.984;7.842;2023-10-13T02:13:37;20.00;72.50
17697;DHT22;8967;47.984;7.842;2023-10-13T02:16:08;19.90;72.50
17697;DHT22;8967;47.984;7.842;2023-10-13T02:18:35;19.90;72.60
17697;DHT22;8967;47.984;7.842;2023-10-13T02:21:09;19.90;72.50
17697;DHT22;8967;47.984;7.842;2023-10-13T02:23:38;19.80;73.40
17697;DHT22;8967;47.984;7.842;2023-10-13T02:26:12;19.80;73.00
17697;DHT22;8967;47.984;7.842;2023-10-13T02:28:45;19.70;73.00
17697;DHT22;8967;47.984;7.842;2023-10-13T02:31:16;19.70;73.50
17697;DHT22;8967;47.984;7.842;2023-10-13T02:33:44;19.60;73.40
17697;DHT22;8967;47.984;7.842;2023-10-13T02:36:12;19.60;73.50
17697;DHT22;8967;47.984;7.842;2023-10-13T02:38:40;19.60;73.50
17697;DHT22;8967;47.984;7.842;2023-10-13T02:41:17;19.50;73.70
17697;DHT22;8967;47.984;7.842;2023-10-13T02:43:51;19.50;73.90
17697;DHT22;8967;47.984;7.842;2023-10-13T02:46:19;19.50;73.90
17697;DHT22;8967;47.984;7.842;2023-10-13T02:48:48;19.50;74.00
17697;DHT22;8967;47.984;7.842;2023-10-13T02:51:19;19.40;74.20
17697;DHT22;8967;47.984;7.842;2023-10-13T02:53:48;19.40;74.10
17697;DHT22;8967;47.984;7.842;2023-10-13T02:56:17;19.20;74.20
17697;DHT22;8967;47.984;7.842;2023-10-13T02:58:49;19.20;74.60
17697;DHT22;8967;47.984;7.842;2023-10-13T03:01:22;19.10;74.80
17697;DHT22;8967;47.984;7.842;2023-10-13T03:03:56;19.10;74.90
17697;DHT22;8967;47.984;7.842;2023-10-13T03:06:26;19.10;75.00
17697;DHT22;8967;47.984;7.842;2023-10-13T03:09:00;19.00;75.10
17697;DHT22;8967;47.984;7.842;2023-10-13T03:11:42;18.90;75.50
17697;DHT22;8967;47.984;7.842;2023-10-13T03:14:08;18.90;75.70
17697;DHT22;8967;47.984;7.842;2023-10-13T03:16:50;18.90;75.90
17697;DHT22;8967;47.984;7.842;2023-10-13T03:19:16;18.90;75.90
17697;DHT22;8967;47.984;7.842;2023-10-13T03:21:45;18.90;76.00
17697;DHT22;8967;47.984;7.842;2023-10-13T03:24:21;18.80;76.10
17697;DHT22;8967;47.984;7.842;2023-10-13T03:27:04;18.80;76.10
17697;DHT22;8967;47.984;7.842;2023-10-13T03:29:35;18.80;76.10
17697;DHT22;8967;47.984;7.842;2023-10-13T03:32:03;18.70;75.80
17697;DHT22;8967;47.984;7.842;2023-10-13T03:34:32;18.70;76.00
17697;DHT22;8967;47.984;7.842;2023-10-13T03:37:00;18.60;76.00
17697;DHT22;8967;47.984;7.842;2023-10-13T03:39:36;18.60;76.30
17697;DHT22;8967;47.984;7.842;2023-10-13T03:42:07;18.50;76.40
17697;DHT22;8967;47.984;7.842;2023-10-13T03:44:37;18.50;76.60
17697;DHT22;8967;47.984;7.842;2023-10-13T03:47:04;18.50;76.60
17697;DHT22;8967;47.984;7.842;2023-10-13T03:49:44;18.50;76.60
17697;DHT22;8967;47.984;7.842;2023-10-13T03:52:16;18.40;76.70
17697;DHT22;8967;47.984;7.842;2023-10-13T03:54:48;18.40;76.80
17697;DHT22;8967;47.984;7.842;2023-10-13T03:57:20;18.40;76.90
17697;DHT22;8967;47.984;7.842;2023-10-13T03:59:51;18.30;77.00
17697;DHT22;8967;47.984;7.842;2023-10-13T04:02:24;18.30;77.10
17697;DHT22;8967;47.984;7.842;2023-10-13T04:04:53;18.30;77.20
17697;DHT22;8967;47.984;7.842;2023-10-13T04:07:21;18.30;77.30
17697;DHT22;8967;47.984;7.842;2023-10-13T04:10:07;18.30;77.50
17697;DHT22;8967;47.984;7.842;2023-10-13T04:13:03;18.20;77.40
17697;DHT22;8967;47.984;7.842;2023-10-13T04:15:56;18.20;78.00
17697;DHT22;8967;47.984;7.842;2023-10-13T04:19:00;18.20;78.00
17697;DHT22;8967;47.984;7.842;2023-10-13T04:21:38;18.10;78.30
17697;DHT22;8967;47.984;7.842;2023-10-13T04:24:20;18.10;78.50
17697;DHT22;8967;47.984;7.842;2023-10-13T04:27:03;18.10;78.50
17697;DHT22;8967;47.984;7.842;2023-10-13T04:29:57;18.10;78.60
17697;DHT22;8967;47.984;7.842;2023-10-13T04:32:37;18.10;78.50
17697;DHT22;8967;47.984;7.842;2023-10-13T04:35:12;18.10;78.20
17697;DHT22;8967;47.984;7.842;2023-10-13T04:37:44;18.10;78.50
17697;DHT22;8967;47.984;7.842;2023-10-13T04:40:20;18.10;78.50
17697;DHT22;8967;47.984;7.842;2023-10-13T04:42:50;18.10;78.60
17697;DHT22;8967;47.984;7.842;2023-10-13T04:45:21;18.10;78.60
17697;DHT22;8967;47.984;7.842;2023-10-13T04:48:02;18.10;78.70
17697;DHT22;8967;47.984;7.842;2023-10-13T04:50:44;18.00;78.90
17697;DHT22;8967;47.984;7.842;2023-10-13T04:53:12;18.00;79.10
17697;DHT22;8967;47.984;7.842;2023-10-13T04:55:55;18.00;79.20
17697;DHT22;8967;47.984;7.842;2023-10-13T04:58:53;17.90;79.50
17697;DHT22;8967;47.984;7.842;2023-10-13T05:01:41;17.90;79.40
17697;DHT22;8967;47.984;7.842;2023-10-13T05:04:49;17.90;79.60
17697;DHT22;8967;47.984;7.842;2023-10-13T05:07:34;17.80;79.60
17697;DHT22;8967;47.984;7.842;2023-10-13T05:10:19;17.80;79.40
17697;DHT22;8967;47.984;7.842;2023-10-13T05:13:04;17.80;79.30
17697;DHT22;8967;47.984;7.842;2023-10-13T05:15:50;17.70;79.60
17697;DHT22;8967;47.984;7.842;2023-10-13T05:18:36;17.70;79.40
17697;DHT22;8967;47.984;7.842;2023-10-13T05:21:24;17.70;79.40
17697;DHT22;8967;47.984;7.842;2023-10-13T05:24:08;17.70;79.70
17697;DHT22;8967;47.984;7.842;2023-10-13T05:26:53;17.70;79.70
17697;DHT22;8967;47.984;7.842;2023-10-13T05:29:39;17.70;80.60
17697;DHT22;8967;47.984;7.842;2023-10-13T05:32:24;17.60;79.80
17697;DHT22;8967;47.984;7.842;2023-10-13T05:35:10;17.60;80.90
17697;DHT22;8967;47.984;7.842;2023-10-13T05:37:55;17.60;80.50
17697;DHT22;8967;47.984;7.842;2023-10-13T05:40:40;17.60;80.50
17697;DHT22;8967;47.984;7.842;2023-10-13T05:43:24;17.50;80.70
17697;DHT22;8967;47.984;7.842;2023-10-13T05:46:09;17.50;81.30
17697;DHT22;8967;47.984;7.842;2023-10-13T05:49:15;17.50;80.90
17697;DHT22;8967;47.984;7.842;2023-10-13T05:52:01;17.50;80.80
17697;DHT22;8967;47.984;7.842;2023-10-13T05:54:45;17.50;81.40
17697;DHT22;8967;47.984;7.842;2023-10-13T05:57:32;17.40;80.90
17697;DHT22;8967;47.984;7.842;2023-10-13T06:00:20;17.40;80.80
17697;DHT22;8967;47.984;7.842;2023-10-13T06:03:07;17.40;80.70
17697;DHT22;8967;47.984;7.842;2023-10-13T06:05:51;17.40;80.90
17697;DHT22;8967;47.984;7.842;2023-10-13T06:08:37;17.40;80.60
17697;DHT22;8967;47.984;7.842;2023-10-13T06:11:30;17.40;80.60
17697;DHT22;8967;47.984;7.842;2023-10-13T06:14:15;17.40;80.90
17697;DHT22;8967;47.984;7.842;2023-10-13T06:16:59;17.30;80.70
17697;DHT22;8967;47.984;7.842;2023-10-13T06:19:55;17.30;81.20
17697;DHT22;8967;47.984;7.842;2023-10-13T06:22:40;17.30;81.30
17697;DHT22;8967;47.984;7.842;2023-10-13T06:25:26;17.20;81.40
17697;DHT22;8967;47.984;7.842;2023-10-13T06:28:10;17.20;81.10
17697;DHT22;8967;47.984;7.842;2023-10-13T06:30:57;17.20;81.10
17697;DHT22;8967;47.984;7.842;2023-10-13T06:33:28;17.20;81.00
17697;DHT22;8967;47.984;7.842;2023-10-13T06:36:02;17.20;81.10
17697;DHT22;8967;47.984;7.842;2023-10-13T06:38:29;17.20;81.10
17697;DHT22;8967;47.984;7.842;2023-10-13T06:41:03;17.20;81.60
17697;DHT22;8967;47.984;7.842;2023-10-13T06:43:34;17.20;81.00
17697;DHT22;8967;47.984;7.842;2023-10-13T06:46:05;17.20;81.10
17697;DHT22;8967;47.984;7.842;2023-10-13T06:48:33;17.20;80.80
17697;DHT22;8967;47.984;7.842;2023-10-13T06:51:03;17.20;81.20
17697;DHT22;8967;47.984;7.842;2023-10-13T06:53:48;17.20;81.40
17697;DHT22;8967;47.984;7.842;2023-10-13T06:56:19;17.20;81.50
17697;DHT22;8967;47.984;7.842;2023-10-13T06:58:55;17.30;81.40
17697;DHT22;8967;47.984;7.842;2023-10-13T07:01:26;17.30;81.40
17697;DHT22;8967;47.984;7.842;2023-10-13T07:03:55;17.30;81.40
17697;DHT22;8967;47.984;7.842;2023-10-13T07:06:27;17.40;81.10
17697;DHT22;8967;47.984;7.842;2023-10-13T07:08:54;17.30;80.70
17697;DHT22;8967;47.984;7.842;2023-10-13T07:11:26;17.40;80.90
17697;DHT22;8967;47.984;7.842;2023-10-13T07:14:00;17.40;81.00
17697;DHT22;8967;47.984;7.842;2023-10-13T07:16:41;17.40;80.80
17697;DHT22;8967;47.984;7.842;2023-10-13T07:19:16;17.40;80.60
17697;DHT22;8967;47.984;7.842;2023-10-13T07:21:44;17.50;80.60
17697;DHT22;8967;47.984;7.842;2023-10-13T07:24:14;17.50;80.50
17697;DHT22;8967;47.984;7.842;2023-10-13T07:26:45;17.50;80.60
17697;DHT22;8967;47.984;7.842;2023-10-13T07:29:39;17.50;80.80
17697;DHT22;8967;47.984;7.842;2023-10-13T07:32:47;17.50;80.60
17697;DHT22;8967;47.984;7.842;2023-10-13T07:35:17;17.50;80.50
17697;DHT22;8967;47.984;7.842;2023-10-13T07:37:46;17.50;80.80
17697;DHT22;8967;47.984;7.842;2023-10-13T07:40:15;17.60;80.90
17697;DHT22;8967;47.984;7.842;2023-10-13T07:43:06;17.60;80.90
17697;DHT22;8967;47.984;7.842;2023-10-13T07:45:36;17.70;81.00
17697;DHT22;8967;47.984;7.842;2023-10-13T07:48:07;17.70;81.10
17697;DHT22;8967;47.984;7.842;2023-10-13T07:50:38;17.70;80.80
17697;DHT22;8967;47.984;7.842;2023-10-13T07:53:06;17.80;81.00
17697;DHT22;8967;47.984;7.842;2023-10-13T07:55:45;17.80;81.10
17697;DHT22;8967;47.984;7.842;2023-10-13T07:58:14;17.80;80.90
17697;DHT22;8967;47.984;7.842;2023-10-13T08:00:43;17.90;81.00
17697;DHT22;8967;47.984;7.842;2023-10-13T11:13:25;22.30;65.70
